createdAt,value
2018-03-20T00:01:22.041Z,0.76
2018-03-20T00:03:50.202Z,0.78
2018-03-20T00:06:18.290Z,0.86
2018-03-20T00:08:46.490Z,0.88
2018-03-20T00:11:14.581Z,0.87
2018-03-20T00:13:42.676Z,0.91
2018-03-20T00:16:10.803Z,1.02
2018-03-20T00:18:38.901Z,1.05
2018-03-20T00:21:07.038Z,1.08
2018-03-20T00:23:35.117Z,1.14
2018-03-20T00:26:03.207Z,1.01
2018-03-20T00:28:31.309Z,1.11
2018-03-20T00:30:59.399Z,1.12
2018-03-20T00:33:27.512Z,1.19
2018-03-20T00:35:55.614Z,1.21
2018-03-20T00:38:23.877Z,1.24
2018-03-20T00:40:51.964Z,1.26
2018-03-20T00:43:20.057Z,1.31
2018-03-20T00:45:48.165Z,1.34
2018-03-20T00:48:16.261Z,1.37
2018-03-20T00:50:44.379Z,1.41
2018-03-20T00:53:12.538Z,1.29
2018-03-20T00:55:40.621Z,1.28
2018-03-20T00:58:08.707Z,1.34
2018-03-20T01:00:37.660Z,1.37
2018-03-20T01:03:05.764Z,1.43
2018-03-20T01:05:34.777Z,1.45
2018-03-20T01:08:02.885Z,1.54
2018-03-20T01:10:30.989Z,1.59
2018-03-20T01:12:59.101Z,1.64
2018-03-20T01:15:27.661Z,1.67
2018-03-20T01:17:55.778Z,1.69
2018-03-20T01:33:28.932Z,1.73
2018-03-20T01:35:57.037Z,1.73
2018-03-20T01:38:25.159Z,1.69
2018-03-20T01:40:53.293Z,1.71
2018-03-20T01:43:21.377Z,1.68
2018-03-20T01:45:49.459Z,1.81
2018-03-20T01:48:17.575Z,1.79
2018-03-20T01:50:46.474Z,1.87
2018-03-20T01:53:20.583Z,1.95
2018-03-20T01:55:48.995Z,1.95
2018-03-20T01:58:17.136Z,2.07
2018-03-20T02:00:45.338Z,2.03
2018-03-20T02:03:13.716Z,1.95
2018-03-20T02:05:42.094Z,2.03
2018-03-20T02:08:10.203Z,2.12
2018-03-20T02:10:39.137Z,2.13
2018-03-20T02:13:07.913Z,2.08
2018-03-20T02:15:36.164Z,2.15
2018-03-20T02:18:04.253Z,2.11
2018-03-20T02:20:32.343Z,2.10
2018-03-20T02:23:00.452Z,2.12
2018-03-20T02:25:28.542Z,2.20
2018-03-20T02:27:56.878Z,2.27
2018-03-20T02:30:24.986Z,2.39
2018-03-20T02:32:53.158Z,2.43
2018-03-20T02:35:21.271Z,2.51
2018-03-20T02:37:49.356Z,2.55
2018-03-20T02:40:17.455Z,2.61
2018-03-20T02:42:45.554Z,2.60
2018-03-20T02:45:13.646Z,2.59
2018-03-20T02:47:41.754Z,2.65
2018-03-20T02:50:10.138Z,2.67
2018-03-20T02:52:38.250Z,2.56
2018-03-20T02:55:06.344Z,2.65
2018-03-20T02:57:34.487Z,2.74
2018-03-20T03:00:02.674Z,2.82
2018-03-20T03:02:31.277Z,2.77
2018-03-20T03:04:59.674Z,2.76
2018-03-20T03:07:28.618Z,2.86
2018-03-20T03:09:56.777Z,2.89
2018-03-20T03:12:24.903Z,2.97
2018-03-20T03:14:53.794Z,2.98
2018-03-20T03:17:22.781Z,3.06
2018-03-20T03:19:50.898Z,3.09
2018-03-20T03:22:19.002Z,3.14
2018-03-20T03:24:47.090Z,3.20
2018-03-20T03:27:15.210Z,3.21
2018-03-20T03:29:43.302Z,3.19
2018-03-20T03:32:11.468Z,3.22
2018-03-20T03:34:39.627Z,3.31
2018-03-20T03:37:07.720Z,3.37
2018-03-20T03:39:35.814Z,3.40
2018-03-20T03:42:04.678Z,3.44
2018-03-20T03:44:32.774Z,3.46
2018-03-20T03:47:00.882Z,3.46
2018-03-20T03:49:29.018Z,3.49
2018-03-20T03:51:57.112Z,3.57
2018-03-20T03:54:25.226Z,3.60
2018-03-20T03:56:53.441Z,3.70
2018-03-20T03:59:21.531Z,3.66
2018-03-20T04:01:50.667Z,3.77
2018-03-20T04:04:18.754Z,3.77
2018-03-20T04:06:47.202Z,3.85
2018-03-20T04:09:15.312Z,3.90
2018-03-20T04:11:43.400Z,3.94
2018-03-20T04:14:12.018Z,4.06
2018-03-20T04:16:40.134Z,4.10
2018-03-20T04:19:09.137Z,4.17
2018-03-20T04:21:37.236Z,4.21
2018-03-20T04:24:05.451Z,4.26
2018-03-20T04:26:33.614Z,4.30
2018-03-20T04:29:01.870Z,4.34
2018-03-20T04:31:29.974Z,4.35
2018-03-20T04:33:58.850Z,4.33
2018-03-20T04:36:28.194Z,4.37
2018-03-20T04:38:56.322Z,4.38
2018-03-20T04:41:24.418Z,4.39
2018-03-20T04:43:52.558Z,4.37
2018-03-20T04:46:20.614Z,4.28
2018-03-20T04:48:48.702Z,4.23
2018-03-20T04:51:16.847Z,4.25
2018-03-20T04:53:45.826Z,4.21
2018-03-20T04:56:13.926Z,4.22
2018-03-20T04:58:42.018Z,4.19
2018-03-20T05:01:10.806Z,4.21
2018-03-20T05:03:38.917Z,4.15
2018-03-20T05:06:06.999Z,4.12
2018-03-20T05:08:35.110Z,4.07
2018-03-20T05:11:03.229Z,3.99
2018-03-20T05:13:31.328Z,3.98
2018-03-20T05:15:59.411Z,3.95
2018-03-20T05:18:27.526Z,3.90
2018-03-20T05:20:56.581Z,3.84
2018-03-20T05:23:25.372Z,3.76
2018-03-20T05:25:53.457Z,3.69
2018-03-20T05:28:21.559Z,3.66
2018-03-20T05:30:49.670Z,3.60
2018-03-20T05:33:17.781Z,3.61
2018-03-20T05:35:46.128Z,3.56
2018-03-20T05:38:14.216Z,3.55
2018-03-20T05:40:43.038Z,3.56
2018-03-20T05:43:11.137Z,3.61
2018-03-20T05:45:39.226Z,3.64
2018-03-20T05:48:13.187Z,3.65
2018-03-20T05:53:43.241Z,3.67
2018-03-20T05:56:11.322Z,3.66
2018-03-20T05:58:39.466Z,3.66
2018-03-20T06:01:07.538Z,3.66
2018-03-20T06:03:35.632Z,3.63
2018-03-20T06:06:03.744Z,3.65
2018-03-20T06:08:31.848Z,3.68
2018-03-20T06:10:59.944Z,3.64
2018-03-20T06:13:28.026Z,3.63
2018-03-20T06:15:56.150Z,3.64
2018-03-20T06:18:24.266Z,3.65
2018-03-20T06:20:52.363Z,3.63
2018-03-20T06:23:20.466Z,3.64
2018-03-20T06:25:48.642Z,3.61
2018-03-20T06:28:16.737Z,3.62
2018-03-20T06:30:44.860Z,3.70
2018-03-20T06:33:13.626Z,3.69
2018-03-20T06:35:41.714Z,3.71
2018-03-20T06:38:09.834Z,3.69
2018-03-20T06:40:37.926Z,3.67
2018-03-20T06:43:06.041Z,3.68
2018-03-20T06:45:34.301Z,3.69
2018-03-20T06:48:02.368Z,3.74
2018-03-20T06:50:30.487Z,3.71
2018-03-20T06:52:58.620Z,3.69
2018-03-20T06:55:26.690Z,3.75
2018-03-20T07:10:55.311Z,7.24
2018-03-20T07:13:23.381Z,7.19
2018-03-20T07:15:51.488Z,9.01
2018-03-20T07:18:19.615Z,10.39
2018-03-20T07:20:47.820Z,10.90
2018-03-20T07:23:15.983Z,11.14
2018-03-20T07:25:44.106Z,10.70
2018-03-20T07:28:12.199Z,8.06
2018-03-20T07:30:40.302Z,8.38
2018-03-20T07:33:08.414Z,7.83
2018-03-20T07:35:36.512Z,9.35
2018-03-20T07:38:04.597Z,9.73
2018-03-20T07:40:32.705Z,9.96
2018-03-20T07:43:00.849Z,12.23
2018-03-20T07:45:29.526Z,10.97
2018-03-20T07:47:57.626Z,11.85
2018-03-20T07:50:25.828Z,12.93
2018-03-20T07:52:54.234Z,14.20
2018-03-20T07:55:22.326Z,14.84
2018-03-20T07:57:50.436Z,13.41
2018-03-20T08:00:18.556Z,12.01
2018-03-20T08:02:46.641Z,12.97
2018-03-20T08:05:14.749Z,12.67
2018-03-20T08:07:42.873Z,11.11
2018-03-20T08:10:10.983Z,13.05
2018-03-20T08:12:39.115Z,13.73
2018-03-20T08:15:07.251Z,14.34
2018-03-20T08:17:35.350Z,13.54
2018-03-20T08:20:03.454Z,13.59
2018-03-20T08:22:31.566Z,14.42
2018-03-20T08:24:59.675Z,14.12
2018-03-20T08:27:27.775Z,12.77
2018-03-20T08:29:55.944Z,12.49
2018-03-20T08:32:24.404Z,10.88
2018-03-20T08:34:52.500Z,9.36
2018-03-20T08:37:20.590Z,10.37
2018-03-20T08:39:48.834Z,8.54
2018-03-20T08:42:21.897Z,7.84
2018-03-20T08:44:50.079Z,8.33
2018-03-20T08:47:18.181Z,7.19
2018-03-20T08:49:46.352Z,6.63
2018-03-20T08:52:14.527Z,6.35
2018-03-20T08:54:43.144Z,6.44
2018-03-20T08:57:11.225Z,6.59
2018-03-20T08:59:39.360Z,6.50
2018-03-20T09:02:07.444Z,6.46
2018-03-20T09:04:35.540Z,6.18
2018-03-20T09:07:03.657Z,6.09
2018-03-20T09:09:31.773Z,6.09
2018-03-20T09:11:59.845Z,6.20
2018-03-20T09:14:28.091Z,6.19
2018-03-20T09:16:56.247Z,6.25
2018-03-20T09:19:24.999Z,6.20
2018-03-20T09:21:53.090Z,6.17
2018-03-20T09:24:21.186Z,6.27
2018-03-20T09:26:49.313Z,6.38
2018-03-20T09:29:17.388Z,6.22
2018-03-20T09:31:45.484Z,6.22
2018-03-20T09:34:13.585Z,6.29
2018-03-20T09:36:41.742Z,6.32
2018-03-20T09:39:09.835Z,6.45
2018-03-20T09:41:38.715Z,6.54
2018-03-20T09:44:06.835Z,6.60
2018-03-20T09:46:35.521Z,6.44
2018-03-20T09:51:38.259Z,6.30
2018-03-20T09:54:06.419Z,6.23
2018-03-20T09:56:34.581Z,6.45
2018-03-20T09:59:02.719Z,6.29
2018-03-20T10:01:30.803Z,6.36
2018-03-20T10:03:58.902Z,6.52
2018-03-20T10:06:27.013Z,6.51
2018-03-20T10:08:55.104Z,6.45
2018-03-20T10:11:23.193Z,6.37
2018-03-20T10:13:51.321Z,6.41
2018-03-20T10:16:20.290Z,6.46
2018-03-20T10:18:48.373Z,6.70
2018-03-20T10:21:16.499Z,6.71
2018-03-20T10:23:44.607Z,6.76
2018-03-20T10:26:12.838Z,6.62
2018-03-20T10:28:40.974Z,6.77
2018-03-20T10:31:09.278Z,6.89
2018-03-20T10:33:37.373Z,6.84
2018-03-20T10:36:05.801Z,6.88
2018-03-20T10:38:33.961Z,6.83
2018-03-20T10:41:02.048Z,6.90
2018-03-20T10:43:30.173Z,6.80
2018-03-20T10:45:58.255Z,6.78
2018-03-20T10:48:26.352Z,6.90
2018-03-20T10:50:54.492Z,6.97
2018-03-20T10:53:23.125Z,6.79
2018-03-20T10:55:51.219Z,6.71
2018-03-20T10:58:19.355Z,6.70
2018-03-20T11:00:48.271Z,6.85
2018-03-20T11:03:16.355Z,6.75
2018-03-20T11:05:44.472Z,6.81
2018-03-20T11:08:12.555Z,6.87
2018-03-20T11:10:40.667Z,7.00
2018-03-20T11:13:08.813Z,6.81
2018-03-20T11:15:36.979Z,6.98
2018-03-20T11:18:05.067Z,6.98
2018-03-20T11:20:33.162Z,6.83
2018-03-20T11:36:01.297Z,7.00
2018-03-20T11:38:29.414Z,6.92
2018-03-20T11:40:58.213Z,6.96
2018-03-20T11:43:26.349Z,7.01
2018-03-20T11:45:54.435Z,6.96
2018-03-20T11:48:22.519Z,7.00
2018-03-20T11:50:50.644Z,6.91
2018-03-20T11:53:18.748Z,7.03
2018-03-20T11:55:48.293Z,7.05
2018-03-20T11:58:16.450Z,7.37
2018-03-20T12:00:44.860Z,7.13
2018-03-20T12:03:12.959Z,7.22
2018-03-20T12:05:41.316Z,7.36
2018-03-20T12:08:21.205Z,7.29
2018-03-20T12:10:49.642Z,7.14
2018-03-20T12:13:17.720Z,7.33
2018-03-20T12:15:46.612Z,7.09
2018-03-20T12:18:14.777Z,7.11
2018-03-20T12:20:42.849Z,6.88
2018-03-20T12:23:10.950Z,7.11
2018-03-20T12:25:39.200Z,7.21
2018-03-20T12:28:07.364Z,7.14
2018-03-20T12:30:35.433Z,7.31
2018-03-20T12:33:03.546Z,7.36
2018-03-20T12:35:31.623Z,7.51
2018-03-20T12:37:59.843Z,7.49
2018-03-20T12:40:27.936Z,7.52
2018-03-20T12:42:56.033Z,7.62
2018-03-20T12:45:24.117Z,7.54
2018-03-20T12:47:52.569Z,7.56
2018-03-20T12:50:20.662Z,7.37
2018-03-20T12:52:48.817Z,7.27
2018-03-20T12:55:17.827Z,7.19
2018-03-20T12:57:46.678Z,7.51
2018-03-20T13:00:14.793Z,7.39
2018-03-20T13:02:42.874Z,7.46
2018-03-20T13:05:12.161Z,7.57
2018-03-20T13:07:40.271Z,7.68
2018-03-20T13:10:08.452Z,7.75
2018-03-20T13:12:36.585Z,7.74
2018-03-20T13:15:04.689Z,7.82
2018-03-20T13:17:32.825Z,7.73
2018-03-20T13:20:00.928Z,7.69
2018-03-20T13:32:14.014Z,7.38
2018-03-20T13:34:42.112Z,7.45
2018-03-20T13:37:10.459Z,7.42
2018-03-20T13:39:38.539Z,7.50
2018-03-20T13:42:07.434Z,7.78
2018-03-20T13:44:35.855Z,7.57
2018-03-20T13:47:04.018Z,7.75
2018-03-20T13:49:32.887Z,7.51
2018-03-20T13:52:00.983Z,7.55
2018-03-20T13:54:29.095Z,7.72
2018-03-20T13:56:57.298Z,7.87
2018-03-20T13:59:25.468Z,7.73
2018-03-20T14:01:53.554Z,7.87
2018-03-20T14:04:21.663Z,7.89
2018-03-20T14:06:49.763Z,7.89
2018-03-20T14:09:17.851Z,7.58
2018-03-20T14:11:45.951Z,7.73
2018-03-20T14:14:14.065Z,7.71
2018-03-20T14:16:42.160Z,7.63
2018-03-20T14:19:10.377Z,7.63
2018-03-20T14:21:38.531Z,7.65
2018-03-20T14:24:07.069Z,7.49
2018-03-20T14:26:35.152Z,7.63
2018-03-20T14:29:03.257Z,7.41
2018-03-20T14:31:31.354Z,7.37
2018-03-20T14:33:59.450Z,7.44
2018-03-20T14:36:29.035Z,7.49
2018-03-20T14:38:57.064Z,7.57
2018-03-20T14:41:26.074Z,7.52
2018-03-20T14:43:54.523Z,7.64
2018-03-20T14:46:22.584Z,7.86
2018-03-20T14:48:50.677Z,8.08
2018-03-20T14:51:18.771Z,8.67
2018-03-20T14:53:46.857Z,8.66
2018-03-20T14:56:15.014Z,8.43
2018-03-20T14:58:43.094Z,7.84
2018-03-20T15:01:11.170Z,7.48
2018-03-20T15:03:40.033Z,7.77
2018-03-20T15:06:08.150Z,7.87
2018-03-20T15:08:36.360Z,7.27
2018-03-20T15:11:04.545Z,7.47
2018-03-20T15:13:32.729Z,7.56
2018-03-20T15:16:00.830Z,7.54
2018-03-20T15:18:28.931Z,7.67
2018-03-20T15:20:58.377Z,7.61
2018-03-20T15:23:26.461Z,7.38
2018-03-20T15:25:54.575Z,7.60
2018-03-20T15:28:22.678Z,7.37
2018-03-20T15:30:51.263Z,7.31
2018-03-20T15:33:19.385Z,7.40
2018-03-20T15:35:48.042Z,7.22
2018-03-20T15:38:16.127Z,7.34
2018-03-20T15:40:44.301Z,7.18
2018-03-20T15:43:12.368Z,7.23
2018-03-20T15:45:40.473Z,7.14
2018-03-20T15:48:08.575Z,7.14
2018-03-20T15:50:36.662Z,7.23
2018-03-20T15:53:04.805Z,7.14
2018-03-20T15:55:32.921Z,7.29
2018-03-20T15:58:01.008Z,7.19
2018-03-20T16:00:29.105Z,6.96
2018-03-20T16:02:57.213Z,7.08
2018-03-20T16:05:25.348Z,7.13
2018-03-20T16:07:53.442Z,7.08
2018-03-20T16:10:21.571Z,7.04
2018-03-20T16:12:50.445Z,7.00
2018-03-20T16:15:18.537Z,6.89
2018-03-20T16:17:46.729Z,6.97
2018-03-20T16:20:14.907Z,6.98
2018-03-20T16:22:42.996Z,6.96
2018-03-20T16:25:11.082Z,6.95
2018-03-20T16:27:39.184Z,6.98
2018-03-20T16:30:07.317Z,7.04
2018-03-20T16:32:35.410Z,7.01
2018-03-20T16:35:03.518Z,7.06
2018-03-20T16:50:31.887Z,6.42
2018-03-20T16:53:00.704Z,6.48
2018-03-20T16:55:28.879Z,6.47
2018-03-20T16:57:57.010Z,6.35
2018-03-20T17:00:25.440Z,6.33
2018-03-20T17:02:53.556Z,6.25
2018-03-20T17:05:21.926Z,6.05
2018-03-20T17:07:50.015Z,6.14
2018-03-20T17:10:18.190Z,6.11
2018-03-20T17:12:46.268Z,5.95
2018-03-20T17:15:14.458Z,5.85
2018-03-20T17:17:42.630Z,5.75
2018-03-20T17:20:10.710Z,5.75
2018-03-20T17:22:38.954Z,5.69
2018-03-20T17:25:07.059Z,5.68
2018-03-20T17:27:35.142Z,5.63
2018-03-20T17:30:03.276Z,5.66
2018-03-20T17:32:32.028Z,5.66
2018-03-20T17:35:01.039Z,5.59
2018-03-20T17:37:29.388Z,5.54
2018-03-20T17:39:57.684Z,5.53
2018-03-20T17:42:25.766Z,5.49
2018-03-20T17:44:53.911Z,5.42
2018-03-20T17:47:22.006Z,5.36
2018-03-20T17:49:50.126Z,5.29
2018-03-20T17:52:18.222Z,5.28
2018-03-20T17:54:46.402Z,5.25
2018-03-20T17:57:14.502Z,5.23
2018-03-20T17:59:42.666Z,5.18
2018-03-20T18:02:10.854Z,5.16
2018-03-20T18:04:39.092Z,5.10
2018-03-20T18:07:07.156Z,5.02
2018-03-20T18:09:35.631Z,5.03
2018-03-20T18:12:03.826Z,5.04
2018-03-20T18:14:31.900Z,5.09
2018-03-20T18:17:00.010Z,5.04
2018-03-20T18:19:28.210Z,5.01
2018-03-20T18:21:56.370Z,4.93
2018-03-20T18:24:25.151Z,4.88
2018-03-20T18:26:53.294Z,4.92
2018-03-20T18:29:21.380Z,4.89
2018-03-20T18:31:49.598Z,4.81
2018-03-20T18:34:17.686Z,4.79
2018-03-20T18:36:45.767Z,4.71
2018-03-20T18:39:13.882Z,4.56
2018-03-20T18:41:41.976Z,4.69
2018-03-20T18:44:10.067Z,4.69
2018-03-20T18:46:38.184Z,4.58
2018-03-20T18:49:06.274Z,4.62
2018-03-20T18:51:34.394Z,4.53
2018-03-20T18:54:02.495Z,4.59
2018-03-20T18:56:30.578Z,4.58
2018-03-20T18:58:58.783Z,4.45
2018-03-20T19:01:26.870Z,4.43
2018-03-20T19:03:55.002Z,4.33
2018-03-20T19:06:23.202Z,4.38
2018-03-20T19:08:51.313Z,4.35
2018-03-20T19:11:19.414Z,4.39
2018-03-20T19:13:47.820Z,4.34
2018-03-20T19:16:16.020Z,4.26
2018-03-20T19:18:44.703Z,4.27
2018-03-20T19:21:12.850Z,4.20
2018-03-20T19:23:40.979Z,4.16
2018-03-20T19:26:09.075Z,4.13
2018-03-20T19:28:37.167Z,4.13
2018-03-20T19:31:05.644Z,4.08
2018-03-20T19:33:33.825Z,4.13
2018-03-20T19:36:01.951Z,4.18
2018-03-20T19:38:30.111Z,4.16
2018-03-20T19:40:58.254Z,4.15
2018-03-20T19:43:26.374Z,4.12
2018-03-20T19:45:54.584Z,4.05
2018-03-20T19:48:23.685Z,4.12
2018-03-20T19:50:51.944Z,4.17
2018-03-20T19:53:20.117Z,4.07
2018-03-20T19:55:49.152Z,4.11
2018-03-20T19:58:17.271Z,4.11
2018-03-20T20:00:45.375Z,4.13
2018-03-20T20:03:13.476Z,4.08
2018-03-20T20:05:41.654Z,3.94
2018-03-20T20:08:09.786Z,3.97
2018-03-20T20:10:38.920Z,4.09
2018-03-20T20:13:07.139Z,3.99
2018-03-20T20:15:35.409Z,3.99
2018-03-20T20:18:03.487Z,4.08
2018-03-20T20:20:31.600Z,4.07
2018-03-20T20:22:59.928Z,4.03
2018-03-20T20:25:28.254Z,4.07
2018-03-20T20:28:01.500Z,4.10
2018-03-20T20:30:29.616Z,4.08
2018-03-20T20:32:57.799Z,4.08
2018-03-20T20:35:25.918Z,4.06
2018-03-20T20:37:54.021Z,4.19
2018-03-20T20:40:23.078Z,4.15
2018-03-20T20:42:51.182Z,4.21
2018-03-20T20:45:20.964Z,4.22
2018-03-20T20:47:51.050Z,4.26
2018-03-20T20:50:20.279Z,4.23
2018-03-20T20:52:48.378Z,4.26
2018-03-20T21:08:16.599Z,4.29
2018-03-20T21:10:44.716Z,4.27
2018-03-20T21:13:12.843Z,4.29
2018-03-20T21:15:40.975Z,4.26
2018-03-20T21:18:09.797Z,4.18
2018-03-20T21:20:37.964Z,4.13
2018-03-20T21:23:06.043Z,4.09
2018-03-20T21:25:34.149Z,4.12
2018-03-20T21:28:02.297Z,4.17
2018-03-20T21:30:30.854Z,4.03
2018-03-20T21:32:59.436Z,4.09
2018-03-20T21:35:27.630Z,4.20
2018-03-20T21:37:55.796Z,4.20
2018-03-20T21:40:23.889Z,4.16
2018-03-20T21:42:52.224Z,4.12
2018-03-20T21:45:20.623Z,4.09
2018-03-20T21:47:48.741Z,4.10
2018-03-20T21:50:16.915Z,4.04
2018-03-20T21:52:44.986Z,3.94
2018-03-20T21:55:13.159Z,3.95
2018-03-20T21:57:41.330Z,3.94
2018-03-20T22:00:09.421Z,3.92
2018-03-20T22:02:37.652Z,3.88
2018-03-20T22:05:05.809Z,3.81
2018-03-20T22:07:33.971Z,3.84
2018-03-20T22:10:02.078Z,3.79
2018-03-20T22:12:30.155Z,3.76
2018-03-20T22:14:58.238Z,3.79
2018-03-20T22:17:26.335Z,3.76
2018-03-20T22:19:54.424Z,3.78
2018-03-20T22:22:22.598Z,3.78
2018-03-20T22:24:50.689Z,3.79
2018-03-20T22:27:18.790Z,3.75
2018-03-20T22:29:47.207Z,3.73
2018-03-20T22:32:15.295Z,3.72
2018-03-20T22:34:43.398Z,3.74
2018-03-20T22:37:11.875Z,3.72
2018-03-20T22:39:40.986Z,3.77
2018-03-20T22:42:09.118Z,4.01
2018-03-20T22:44:37.221Z,4.02
2018-03-20T22:47:05.323Z,3.90
2018-03-20T22:49:33.521Z,3.72
2018-03-20T22:52:01.625Z,3.65
2018-03-20T22:54:29.865Z,3.53
2018-03-20T22:56:58.004Z,3.56
2018-03-20T22:59:26.145Z,3.47
2018-03-20T23:01:54.256Z,3.53
2018-03-20T23:04:22.356Z,3.47
2018-03-20T23:06:50.731Z,3.47
2018-03-20T23:09:19.628Z,3.48
2018-03-20T23:11:47.725Z,3.40
2018-03-20T23:14:16.379Z,3.42
2018-03-20T23:16:44.494Z,3.40
2018-03-20T23:19:12.602Z,3.37
2018-03-20T23:21:40.696Z,3.40
2018-03-20T23:24:08.859Z,3.41
2018-03-20T23:26:36.925Z,3.36
2018-03-20T23:29:05.018Z,3.37
2018-03-20T23:31:33.129Z,3.39
2018-03-20T23:34:01.248Z,3.31
2018-03-20T23:36:29.363Z,3.35
2018-03-20T23:38:58.343Z,3.31
2018-03-20T23:41:26.452Z,3.27
2018-03-20T23:43:54.573Z,3.32
2018-03-20T23:46:22.719Z,3.32
2018-03-20T23:48:50.909Z,3.30
2018-03-20T23:51:18.996Z,3.33
2018-03-20T23:53:47.100Z,3.34
2018-03-20T23:56:15.242Z,3.32
2018-03-20T23:58:43.368Z,3.32
